• Join FlightAware (Why Join?)
  • Login
  • US Flag 
08:23AM EDT


 

Airport Tracker/Info


-or-


 

Live Flight TrackerFlight Track Log ✈ SKW6492 ✈ 18-Aug-2013 ✈ KDEN - KCOD

Flight Track Log - Related Links

Times and Time Zones

All times are in EDT time to prevent confusion due to time zone crossing. See the SKW6492 flight status page for this flight to view local times or setup timezone preferences in your user account.

Time Position Orientation Groundspeed Altitude Reporting Facility
EDT Latitude Longitude Course Direction KTS MPH feet Rate Location/Type
10:13PM 39.9167 -104.7000 346° North 203 234 6,400  Level Denver TRACON
10:14PM 39.9833 -104.6833 11° North 233 268 8,000 1,380 Climbing Denver TRACON
10:15PM 40.0222 -104.6653 20° North 246 283 8,700 1,560 Climbing Denver Center
10:16PM 40.2708 -104.8029 347° North  Level FlightAware Approximate
10:16PM 40.1000 -104.6656 360° North 276 318 10,600  Level Denver Center
10:17PM 40.3763 -104.8365 346° North  Level FlightAware Approximate
10:17PM 40.1847 -104.6903 347° North 284 327 12,200  Level Denver Center
10:18PM 40.4815 -104.8716 346° North  Level FlightAware Approximate
10:18PM 40.2725 -104.7122 349° North 317 365 13,400  Level Denver Center
10:19PM 40.3719 -104.7389 348° North 341 392 14,600 1,080 Climbing Denver Center
10:20PM 40.4703 -104.7647 349° North 359 413 15,700 1,020 Climbing Denver Center
10:21PM 40.5686 -104.7939 347° North 366 421 16,800 960 Climbing Denver Center
10:22PM 40.6767 -104.8214 349° North 366 421 17,700 780 Climbing Denver Center
10:23PM 40.7536 -104.8431 348° North 363 418 18,400 900 Climbing Denver Center
10:24PM 40.8714 -104.8914 343° North 369 425 19,600 1,020 Climbing Denver Center
10:25PM 40.9683 -104.9364 341° North 372 428 20,600 1,020 Climbing Denver Center
10:26PM 41.0708 -104.9872 340° North 372 428 21,700 960 Climbing Denver Center
10:27PM 41.1797 -105.0431 339° North 375 432 22,800 960 Climbing Denver Center
10:28PM 41.2742 -105.1236 327° Northwest 365 420 23,900 1,020 Climbing Denver Center
10:29PM 41.3611 -105.2172 321° Northwest 360 414 25,000 900 Climbing Denver Center
10:30PM 41.4350 -105.2992 320° Northwest 360 414 25,800 780 Climbing Denver Center
10:31PM 41.5211 -105.3928 321° Northwest 358 412 26,600 720 Climbing Denver Center
10:32PM 41.5958 -105.4722 322° Northwest 358 412 27,300 660 Climbing Denver Center
10:33PM 41.6706 -105.5544 321° Northwest 361 415 28,000 600 Climbing Denver Center
10:34PM 41.7583 -105.6486 321° Northwest 361 415 28,600 480 Climbing Denver Center
10:35PM 41.8347 -105.7328 321° Northwest 368 423 29,100 480 Climbing Denver Center
10:36PM 41.9247 -105.8369 319° Northwest 379 436 29,600 480 Climbing Denver Center
10:37PM 42.0011 -105.9289 318° Northwest 384 442 30,100 420 Climbing Denver Center
10:39PM 42.0775 -106.0214 318° Northwest 386 444 30,600 480 Climbing Denver Center
10:40PM 42.1742 -106.1439 317° Northwest 377 434 31,200 480 Climbing Denver Center
10:41PM 42.2486 -106.2361 317° Northwest 380 437 31,700 360 Climbing Denver Center
10:42PM 42.3356 -106.3439 318° Northwest 379 436 32,000 120 Climbing Denver Center
10:43PM 42.4119 -106.4383 318° Northwest 387 445 32,000  Level Denver Center
10:44PM 42.5019 -106.5511 317° Northwest 394 453 32,000  Level Denver Center
10:45PM 42.5825 -106.6503 318° Northwest 406 467 32,000  Level Denver Center
10:46PM 42.6614 -106.7506 317° Northwest 406 467 32,000  Level Denver Center
10:47PM 42.7581 -106.8703 318° Northwest 417 480 32,000  Level Denver Center
10:48PM 42.8364 -106.9756 315° West 417 480 32,000  Level Denver Center
10:49PM 42.9331 -107.0969 317° Northwest 421 484 32,000  Level Denver Center
10:50PM 43.0169 -107.2028 317° Northwest 426 490 32,000  Level Denver Center
10:51PM 43.1056 -107.3172 317° Northwest 426 490 32,000  Level Denver Center
10:52PM 43.1914 -107.4292 316° Northwest 427 491 32,000  Level Denver Center
10:53PM 43.2778 -107.5419 316° Northwest 430 495 32,000  Level Denver Center
10:54PM 43.3642 -107.6517 317° Northwest 426 490 32,000  Level Denver Center
10:55PM 43.4500 -107.7644 316° Northwest 427 491 32,000 -60 Level Denver Center
10:56PM 43.5364 -107.8797 316° Northwest 430 495 31,900 -1,080 Descending Denver Center
10:58PM 43.6794 -108.0692 316° Northwest 445 512 29,400 -1,980 Descending Salt Lake Center
10:59PM 43.7694 -108.1886 316° Northwest 448 516 27,000 -2,820 Descending Salt Lake Center
11:00PM 43.8542 -108.3008 316° Northwest 433 498 23,700 -3,420 Descending Salt Lake Center
11:01PM 43.9353 -108.4117 315° West 418 481 20,100 -3,420 Descending Salt Lake Center
11:02PM 44.0169 -108.5203 316° Northwest 409 471 16,800 -3,240 Descending Salt Lake Center
11:03PM 44.1011 -108.6222 319° Northwest 407 468 13,500 -3,120 Descending Salt Lake Center
11:04PM 44.1856 -108.7175 321° Northwest 401 461 10,500 -1,860 Descending Salt Lake Center
11:05PM 44.2658 -108.8214 317° Northwest 360 414 9,800 -1,020 Descending Salt Lake Center
11:06PM 44.3214 -108.8964 316° Northwest 305 351 8,500 -960 Descending Salt Lake Center
11:07PM 44.3742 -108.9564 321° Northwest 275 316 7,900 -480 Descending Salt Lake Center
11:08PM 44.4211 -109.0083 322° Northwest 248 285 7,600 -300 Descending Salt Lake Center
11:09PM 44.4594 -109.0536 320° Northwest 219 252 7,300 -300 Descending Salt Lake Center